Eastern Oregon Regional At Pendleton Airport
KPDT : now visible

Airfield :











YOU CAN JOIN US ON...

 
LOGIN :

Register | Disclaimer

   EN    FR    IT 

 









Legend :    VFR   Marginal VFR   IFR   Intensive IFR   Very Intensive IFR
Visi :
Ceiling :
>= 8 km
>= 3000ft
5 to 8 km
1000 to 3000 ft
1500m to 5 km
500 to 1000 ft
800 to 1500m
200 to 500 ft
< 800m
< 200 ft
Symbols :   Thunderstorms  Fog  Heavy snow  Heavy precipitations  Wind > 20 kt






- Airport Elevation : 1497 ft


KPDT - Eastern Oregon Regional At Pendleton

CURRENT METAR :
  • 060353Z AUTO 17004KT 10SM CLR 19/08 A3011 RMK AO2 SLP187 T01890078

EXPIRED METARs :
  • 060253Z AUTO 36003KT 10SM CLR 21/07 A3011 RMK AO2 SLP187 T02060072 53004
  • 060153Z 02003KT 10SM CLR 22/07 A3010 RMK AO2 SLP182 T02170067

TAF KPDT
Valid from the 06 at 00:00 until the 07 at 00:00 UTC


052320Z 0600/0624 02007KT P6SM FEW250
FM060400 13005KT P6SM FEW250
FM061800 35005KT P6SM FEW250
KZSE FIR / North America



MET'MAP, your aeronautical weather chart ! - Copyright ORBIFLY December 2007 - Disclaimer

ORBIFLY MET'MAP TEAM :

Programming & Development : Alexandra Zaïnal
Original concept : Baudouin d'Aumeries
Technical & hardware support : Manuel Goepfert
Assistance : Marc-Olivier Méhu




SOURCES & CREDITS :

   NOAA       Earth
Advisory